< < Back
Terminal Aerodrome Forecast


Current Version              Previous Versions:   1  2  3  4  5  6  7  8  9  

Terminal Aerodrome Forecast

401
FTUS42 KGSP 082332
TAFAND
TAF
KAND 082332Z 0900/0924 26011G20KT P6SM BKN100
     FM090100 27011KT P6SM SCT090
     FM091600 26014G22KT P6SM BKN045=

Latest METAR

899
SAUS70 KWBC 090300 RRD
MTRAND
METAR KAND 090256Z AUTO 29008KT 10SM CLR 04/M05 A2973 RMK AO2 SLP067
T00441050 51006


USA.gov is the U.S. government's official web portal to all federal, state and local government web resources and services.